Time;durP1;ratioP1;P1;durP2;ratioP2;P2;SDS_P1;SDS_P2;PMS_P1;PMS_P2;Temp;Humidity;BMP_temperature;BMP_pressure;BME280_temperature;BME280_humidity;BME280_pressure;Samples;Min_cycle;Max_cycle;Signal;HPM_P1;HPM_P2
2022/05/24 00:01:30;;;;;;;11.60;9.70;;;16.20;80.30;;;;;;5096535;28;20533;-68
2022/05/24 00:03:56;;;;;;;12.98;10.25;;;16.10;80.60;;;;;;5090073;28;20038;-68
2022/05/24 00:06:24;;;;;;;10.20;9.00;;;16.10;80.80;;;;;;5098898;28;20023;-68
2022/05/24 00:08:50;;;;;;;11.13;7.93;;;16.00;80.90;;;;;;5095931;28;20166;-70
2022/05/24 00:11:15;;;;;;;11.77;8.75;;;16.10;81.50;;;;;;5104652;28;20028;-68
2022/05/24 00:13:41;;;;;;;8.48;7.53;;;16.10;81.50;;;;;;5089917;28;20390;-67
2022/05/24 00:16:07;;;;;;;11.35;8.73;;;16.10;80.80;;;;;;5084739;28;20069;-67
2022/05/24 00:18:33;;;;;;;10.52;8.48;;;16.10;80.80;;;;;;5089290;28;20024;-68
2022/05/24 00:21:01;;;;;;;9.02;7.22;;;16.10;80.80;;;;;;5102536;28;20077;-67
2022/05/24 00:23:29;;;;;;;10.32;7.25;;;16.20;80.80;;;;;;5092217;28;20077;-68
2022/05/24 00:26:01;;;;;;;7.88;6.90;;;16.20;80.70;;;;;;5087299;28;20103;-68
2022/05/24 00:28:29;;;;;;;7.68;6.88;;;16.20;80.60;;;;;;5091945;28;20032;-68
2022/05/24 00:30:55;;;;;;;10.35;9.30;;;16.20;80.50;;;;;;5094762;28;20039;-67
2022/05/24 00:33:21;;;;;;;10.80;8.20;;;16.30;80.50;;;;;;5086326;28;20024;-68
2022/05/24 00:35:47;;;;;;;10.65;9.27;;;16.20;80.50;;;;;;5090924;28;20028;-68
2022/05/24 00:38:36;;;;;;;10.45;9.27;;;16.20;80.60;;;;;;5081606;28;20012;-67
2022/05/24 00:41:16;;;;;;;12.15;10.27;;;16.20;80.80;;;;;;5094886;28;20024;-68
2022/05/24 00:43:48;;;;;;;15.52;13.88;;;16.20;80.80;;;;;;5108162;28;20076;-68
2022/05/24 00:46:40;;;;;;;13.63;11.55;;;16.10;81.00;;;;;;5085577;28;20051;-68
2022/05/24 00:49:14;;;;;;;22.30;14.68;;;16.00;81.20;;;;;;5084466;28;20565;-68
2022/05/24 00:51:46;;;;;;;12.10;9.93;;;16.00;81.20;;;;;;5103824;28;20020;-68
2022/05/24 00:54:12;;;;;;;14.63;12.98;;;16.00;81.20;;;;;;5081408;28;20082;-67
2022/05/24 00:56:48;;;;;;;14.90;12.70;;;16.00;81.30;;;;;;5088006;28;20028;-69
2022/05/24 00:59:29;;;;;;;14.73;11.10;;;16.00;82.00;;;;;;5090927;28;20012;-69
2022/05/24 01:01:55;;;;;;;12.50;10.80;;;16.00;81.30;;;;;;5081682;28;20027;-68
2022/05/24 01:04:21;;;;;;;16.20;14.50;;;16.00;81.20;;;;;;5097228;28;20035;-68
2022/05/24 01:06:48;;;;;;;15.23;12.55;;;16.00;81.30;;;;;;5093420;28;20019;-68
2022/05/24 01:09:22;;;;;;;16.50;14.40;;;16.00;81.30;;;;;;5105209;28;20208;-69
2022/05/24 01:11:52;;;;;;;19.98;16.35;;;15.90;81.30;;;;;;5092105;28;20028;-70
2022/05/24 01:14:19;;;;;;;17.25;14.90;;;15.90;81.40;;;;;;5090363;28;20678;-69
2022/05/24 01:16:45;;;;;;;14.02;12.23;;;15.90;81.50;;;;;;5091125;28;20025;-68
2022/05/24 01:19:20;;;;;;;14.52;12.13;;;15.90;81.40;;;;;;5099101;28;20024;-67
2022/05/24 01:21:47;;;;;;;15.35;12.85;;;15.90;81.30;;;;;;5081682;28;20024;-68
2022/05/24 01:24:22;;;;;;;19.13;16.67;;;15.90;81.20;;;;;;5085148;28;20425;-68
2022/05/24 01:26:53;;;;;;;17.33;14.10;;;15.90;81.20;;;;;;5099305;28;20110;-68
2022/05/24 01:29:21;;;;;;;17.17;14.18;;;15.80;81.10;;;;;;5103492;28;20403;-69
2022/05/24 01:37:17;;;;;;;16.25;13.05;;;15.80;81.10;;;;;;5090887;28;20039;-68
2022/05/24 01:39:47;;;;;;;15.25;12.38;;;15.70;80.90;;;;;;5108516;28;20020;-67
2022/05/24 01:42:13;;;;;;;18.23;13.05;;;15.70;80.90;;;;;;5101387;28;20074;-66
2022/05/24 01:45:17;;;;;;;19.55;15.45;;;15.70;80.80;;;;;;5100658;28;20047;-67
2022/05/24 01:47:45;;;;;;;22.10;17.90;;;15.60;80.70;;;;;;5106497;28;20027;-65
2022/05/24 01:50:16;;;;;;;16.38;14.02;;;15.60;80.80;;;;;;5096087;28;20024;-67
2022/05/24 01:52:48;;;;;;;19.17;16.10;;;15.60;80.90;;;;;;5091738;28;20273;-68
2022/05/24 01:55:22;;;;;;;18.63;13.93;;;15.50;80.80;;;;;;5085998;28;20274;-67
2022/05/24 01:57:52;;;;;;;15.85;12.43;;;15.50;80.80;;;;;;5088358;28;20016;-68
2022/05/24 02:00:18;;;;;;;22.67;18.95;;;15.50;80.70;;;;;;5088671;28;20063;-67
2022/05/24 02:02:45;;;;;;;23.95;19.17;;;15.50;80.70;;;;;;5090661;28;20031;-69
2022/05/24 02:05:13;;;;;;;22.35;17.73;;;15.50;80.90;;;;;;5101175;28;20020;-68
2022/05/24 02:07:39;;;;;;;20.20;16.40;;;15.50;80.90;;;;;;5081951;28;20393;-68
2022/05/24 02:10:05;;;;;;;20.00;16.38;;;15.50;81.00;;;;;;5102793;28;20020;-69
2022/05/24 02:12:38;;;;;;;21.83;18.50;;;15.40;81.00;;;;;;5074192;28;20020;-68
2022/05/24 02:15:09;;;;;;;16.80;15.00;;;15.40;81.10;;;;;;5097992;28;20016;-69
2022/05/24 02:17:42;;;;;;;20.77;16.35;;;15.40;81.20;;;;;;5091544;28;20059;-68
2022/05/24 02:20:13;;;;;;;20.38;17.75;;;15.40;81.30;;;;;;5104078;28;20020;-68
2022/05/24 02:22:40;;;;;;;17.95;14.40;;;15.30;81.20;;;;;;5098297;28;20055;-68
2022/05/24 02:25:25;;;;;;;21.02;18.40;;;15.30;81.20;;;;;;5098103;28;20635;-67
2022/05/24 02:27:51;;;;;;;21.00;15.95;;;15.30;81.40;;;;;;5084650;28;20044;-67
2022/05/24 02:30:20;;;;;;;18.25;14.23;;;15.30;81.30;;;;;;5109376;28;20024;-67
2022/05/24 02:32:46;;;;;;;17.23;13.43;;;15.20;81.20;;;;;;5097738;28;20062;-67
2022/05/24 02:35:12;;;;;;;15.43;12.23;;;15.20;81.30;;;;;;5101806;28;20132;-68
2022/05/24 02:37:37;;;;;;;15.90;12.43;;;15.20;81.30;;;;;;5071866;28;20046;-67
2022/05/24 02:42:48;;;;;;;14.05;12.15;;;15.10;81.00;;;;;;5096095;28;20499;-67
2022/05/24 02:45:13;;;;;;;10.98;8.73;;;15.10;80.90;;;;;;5104087;28;20102;-67
2022/05/24 02:47:40;;;;;;;15.63;10.48;;;15.10;80.70;;;;;;5094763;28;20421;-68
2022/05/24 02:50:09;;;;;;;11.38;9.10;;;15.10;80.70;;;;;;5104102;28;20016;-67
2022/05/24 02:52:36;;;;;;;14.18;9.20;;;15.00;80.60;;;;;;5089348;28;20486;-67
2022/05/24 02:55:03;;;;;;;11.35;8.02;;;14.90;80.60;;;;;;5088201;28;20069;-67
2022/05/24 02:57:28;;;;;;;9.80;7.20;;;14.90;80.60;;;;;;5087657;28;20031;-67
2022/05/24 02:59:54;;;;;;;9.85;7.32;;;14.90;80.60;;;;;;5095703;28;20025;-67
2022/05/24 03:02:19;;;;;;;8.85;5.95;;;14.90;80.50;;;;;;5093139;28;20053;-67
2022/05/24 03:04:45;;;;;;;8.65;6.10;;;14.90;80.30;;;;;;5099843;28;20059;-69
2022/05/24 03:09:54;;;;;;;9.93;5.78;;;14.80;80.30;;;;;;5104427;28;20043;-69
2022/05/24 03:15:05;;;;;;;9.23;5.40;;;14.70;80.20;;;;;;5101569;28;20068;-68
2022/05/24 03:17:31;;;;;;;7.65;4.45;;;14.70;80.10;;;;;;5087110;28;20074;-68
2022/05/24 03:19:57;;;;;;;7.35;4.82;;;14.70;80.00;;;;;;5091855;28;20019;-67
2022/05/24 03:22:22;;;;;;;7.50;5.80;;;14.70;79.90;;;;;;5085774;28;20670;-67
2022/05/24 03:24:48;;;;;;;7.57;4.68;;;14.60;79.80;;;;;;5103314;28;20020;-67
2022/05/24 03:27:14;;;;;;;11.38;4.82;;;14.60;79.80;;;;;;5094925;28;20101;-67
2022/05/24 03:29:41;;;;;;;9.15;4.95;;;14.60;79.80;;;;;;5110663;28;20030;-68
2022/05/24 03:32:08;;;;;;;8.80;4.40;;;14.60;79.80;;;;;;5104413;28;20019;-68
2022/05/24 03:34:35;;;;;;;5.45;3.80;;;14.60;79.70;;;;;;5099131;28;20024;-67
2022/05/24 03:37:00;;;;;;;9.88;4.57;;;14.60;79.70;;;;;;5095578;28;20023;-67
2022/05/24 03:39:26;;;;;;;6.88;4.22;;;14.60;79.50;;;;;;5102417;28;20095;-67
2022/05/24 03:41:51;;;;;;;6.15;3.72;;;14.60;79.40;;;;;;5098946;28;20049;-68
2022/05/24 03:44:17;;;;;;;6.95;4.00;;;14.60;79.40;;;;;;5103037;28;20156;-68
2022/05/24 03:46:43;;;;;;;6.63;4.63;;;14.60;79.30;;;;;;5104113;28;20090;-67
2022/05/24 03:49:09;;;;;;;5.65;3.70;;;14.50;79.30;;;;;;5104176;28;20023;-67
2022/05/24 03:51:34;;;;;;;7.43;4.60;;;14.50;79.40;;;;;;5103781;28;20033;-67
2022/05/24 03:54:00;;;;;;;5.93;3.40;;;14.50;79.30;;;;;;5092430;28;20027;-67
2022/05/24 03:56:26;;;;;;;5.82;3.85;;;14.50;79.30;;;;;;5098648;28;20028;-67
2022/05/24 03:58:52;;;;;;;8.13;4.70;;;14.50;79.20;;;;;;5089144;28;20047;-67
2022/05/24 04:01:17;;;;;;;7.35;4.32;;;14.40;79.30;;;;;;5093638;28;20433;-69
2022/05/24 04:03:43;;;;;;;7.15;3.70;;;14.50;79.30;;;;;;5103053;28;20028;-69
2022/05/24 04:06:08;;;;;;;5.57;3.80;;;14.50;79.30;;;;;;5098986;28;20089;-68
2022/05/24 04:08:35;;;;;;;8.43;4.47;;;14.50;79.30;;;;;;5064578;28;20652;-69
2022/05/24 04:11:03;;;;;;;8.65;4.15;;;14.40;79.30;;;;;;5112521;28;20015;-68
2022/05/24 04:13:29;;;;;;;4.78;3.33;;;14.40;79.40;;;;;;5102743;28;20024;-67
2022/05/24 04:15:55;;;;;;;7.72;4.03;;;14.40;79.30;;;;;;5108716;28;20065;-66
2022/05/24 04:18:20;;;;;;;7.13;4.30;;;14.40;79.40;;;;;;5085158;28;20378;-68
2022/05/24 04:20:46;;;;;;;8.13;3.90;;;14.40;79.40;;;;;;5107467;28;20031;-67
2022/05/24 04:23:13;;;;;;;7.43;4.38;;;14.40;79.40;;;;;;5093892;28;20019;-68
2022/05/24 04:25:38;;;;;;;6.22;4.20;;;14.40;79.40;;;;;;5108284;28;20137;-68
2022/05/24 04:28:04;;;;;;;6.20;3.90;;;14.40;79.40;;;;;;5088409;28;20031;-68
2022/05/24 04:30:31;;;;;;;6.57;3.65;;;14.40;79.40;;;;;;5093120;28;20066;-70
2022/05/24 04:32:57;;;;;;;6.75;3.70;;;14.40;79.40;;;;;;5090951;28;20062;-68
2022/05/24 04:35:23;;;;;;;10.02;4.88;;;14.40;79.30;;;;;;5098265;28;21388;-68
2022/05/24 04:37:49;;;;;;;7.82;5.22;;;14.40;79.30;;;;;;5088770;28;20043;-67
2022/05/24 04:40:15;;;;;;;6.55;4.18;;;14.40;79.30;;;;;;5097655;28;20371;-69
2022/05/24 04:42:40;;;;;;;9.43;4.18;;;14.40;79.30;;;;;;5098986;28;20027;-68
2022/05/24 04:45:12;;;;;;;7.28;4.20;;;14.50;79.30;;;;;;5111743;28;20019;-69
2022/05/24 04:47:38;;;;;;;7.00;3.55;;;14.40;79.20;;;;;;5090086;28;20046;-69
2022/05/24 04:50:10;;;;;;;6.72;3.90;;;14.50;79.10;;;;;;5106121;28;20030;-67
2022/05/24 04:52:38;;;;;;;8.02;4.50;;;14.60;79.00;;;;;;5097534;28;20047;-68
2022/05/24 04:55:07;;;;;;;7.93;4.72;;;14.50;78.90;;;;;;5090623;28;20621;-68
2022/05/24 04:57:32;;;;;;;8.52;4.88;;;14.50;78.90;;;;;;5101857;28;20040;-68
2022/05/24 04:59:58;;;;;;;10.45;5.78;;;14.60;78.80;;;;;;5106186;28;20020;-67
2022/05/24 05:02:24;;;;;;;8.88;5.15;;;14.60;78.80;;;;;;5092990;28;20081;-68
2022/05/24 05:04:49;;;;;;;8.73;5.60;;;14.50;78.70;;;;;;5109772;28;20031;-68
2022/05/24 05:07:16;;;;;;;9.00;5.10;;;14.40;78.70;;;;;;5096432;28;20024;-68
2022/05/24 05:09:43;;;;;;;8.70;5.45;;;14.40;78.80;;;;;;5102954;28;20075;-69
2022/05/24 05:12:10;;;;;;;9.57;6.10;;;14.50;78.80;;;;;;5093977;28;20483;-69
2022/05/24 05:14:38;;;;;;;7.93;5.22;;;14.50;78.80;;;;;;5078637;28;20028;-68
2022/05/24 05:17:04;;;;;;;11.10;6.47;;;14.50;78.80;;;;;;5093049;28;20019;-67
2022/05/24 05:19:29;;;;;;;9.40;6.03;;;14.50;78.70;;;;;;5083908;28;20031;-67
2022/05/24 05:21:55;;;;;;;10.23;6.07;;;14.50;78.90;;;;;;5099939;28;20023;-68
2022/05/24 05:24:21;;;;;;;8.93;6.15;;;14.40;78.80;;;;;;5066515;28;20478;-66
2022/05/24 05:26:47;;;;;;;9.50;5.72;;;14.40;78.80;;;;;;5087000;28;20054;-67
2022/05/24 05:29:12;;;;;;;8.80;5.53;;;14.40;78.90;;;;;;5073860;28;20051;-67
2022/05/24 05:31:38;;;;;;;8.18;5.40;;;14.40;79.00;;;;;;5086145;28;20170;-67
2022/05/24 05:34:04;;;;;;;10.27;6.68;;;14.40;79.10;;;;;;5091691;28;20271;-69
2022/05/24 05:36:31;;;;;;;9.68;6.82;;;14.40;79.10;;;;;;5076319;28;20039;-68
2022/05/24 05:38:57;;;;;;;10.48;6.65;;;14.40;79.00;;;;;;5089437;28;20024;-68
2022/05/24 05:41:26;;;;;;;12.45;7.72;;;14.40;79.10;;;;;;5093418;28;20032;-68
2022/05/24 05:43:51;;;;;;;9.18;5.78;;;14.40;79.10;;;;;;5088949;28;20028;-67
2022/05/24 05:46:18;;;;;;;8.65;6.30;;;14.40;79.10;;;;;;5105603;28;20489;-68
2022/05/24 05:48:44;;;;;;;7.57;5.93;;;14.40;79.00;;;;;;5084239;28;20107;-67
2022/05/24 05:51:11;;;;;;;9.90;6.47;;;14.40;79.00;;;;;;5107267;28;20566;-67
2022/05/24 05:53:38;;;;;;;11.27;6.40;;;14.40;78.80;;;;;;5082621;28;20035;-68
2022/05/24 05:56:04;;;;;;;8.70;6.18;;;14.40;78.70;;;;;;5081730;28;20047;-68
2022/05/24 05:58:31;;;;;;;9.48;5.88;;;14.40;78.70;;;;;;5087769;28;20044;-68
2022/05/24 06:00:57;;;;;;;9.00;6.40;;;14.50;78.60;;;;;;5090990;28;20012;-68
2022/05/24 06:03:23;;;;;;;8.20;6.10;;;14.40;78.40;;;;;;5088553;28;20024;-68
2022/05/24 06:05:51;;;;;;;11.63;7.40;;;14.50;78.50;;;;;;5090290;28;20378;-68
2022/05/24 06:08:17;;;;;;;7.20;6.00;;;14.50;78.50;;;;;;5085526;28;20127;-68
2022/05/24 06:10:43;;;;;;;12.20;8.85;;;14.40;78.40;;;;;;5092333;28;20107;-67
2022/05/24 06:13:08;;;;;;;9.98;7.05;;;14.40;78.30;;;;;;5088512;28;20042;-68
2022/05/24 06:15:35;;;;;;;12.80;7.72;;;14.40;78.20;;;;;;5075023;28;20059;-67
2022/05/24 06:18:01;;;;;;;9.70;6.35;;;14.50;78.20;;;;;;5097759;28;20648;-67
2022/05/24 06:20:29;;;;;;;10.65;6.97;;;14.40;78.00;;;;;;5078750;28;20161;-67
2022/05/24 06:22:57;;;;;;;11.23;6.75;;;14.50;78.00;;;;;;5085707;28;20020;-67
2022/05/24 06:25:25;;;;;;;10.25;7.78;;;14.50;77.90;;;;;;5088665;28;20031;-67
2022/05/24 06:27:52;;;;;;;10.68;7.40;;;14.60;77.80;;;;;;5083764;28;20032;-66
2022/05/24 06:30:20;;;;;;;8.52;5.88;;;14.60;77.60;;;;;;5084599;28;20024;-68
2022/05/24 06:32:46;;;;;;;9.10;6.43;;;14.60;77.60;;;;;;5072973;28;20021;-67
2022/05/24 06:35:12;;;;;;;9.95;7.00;;;14.70;77.50;;;;;;5077132;28;20478;-67
2022/05/24 06:37:37;;;;;;;7.82;6.00;;;14.60;77.40;;;;;;5089296;28;20024;-68
2022/05/24 06:40:04;;;;;;;9.93;7.20;;;14.70;77.40;;;;;;5086885;28;20031;-68
2022/05/24 06:42:29;;;;;;;11.25;7.30;;;14.70;77.30;;;;;;5078305;28;20054;-68
2022/05/24 06:44:56;;;;;;;8.07;5.55;;;14.60;77.30;;;;;;5087274;28;20525;-68
2022/05/24 06:47:22;;;;;;;9.77;6.10;;;14.70;77.30;;;;;;5081911;28;20548;-68
2022/05/24 06:49:48;;;;;;;9.43;7.20;;;14.70;77.30;;;;;;5088785;28;20032;-68
2022/05/24 06:52:15;;;;;;;11.40;7.78;;;14.60;77.20;;;;;;5089279;28;20061;-68
2022/05/24 06:54:40;;;;;;;9.73;6.90;;;14.70;77.00;;;;;;5085662;28;20023;-68
2022/05/24 06:57:06;;;;;;;8.55;5.72;;;14.60;76.90;;;;;;5100349;28;20024;-68
2022/05/24 07:02:25;;;;;;;11.10;6.72;;;14.60;76.70;;;;;;5094409;28;20039;-68
2022/05/24 07:05:10;;;;;;;7.32;6.32;;;14.50;76.50;;;;;;5107479;28;20039;-68
2022/05/24 07:07:36;;;;;;;9.75;8.25;;;14.60;76.40;;;;;;5098039;28;20040;-69
2022/05/24 07:10:04;;;;;;;9.55;7.15;;;14.60;76.10;;;;;;5099317;28;20058;-68
2022/05/24 07:12:30;;;;;;;9.25;7.70;;;14.60;75.90;;;;;;5097250;28;20482;-68
2022/05/24 07:14:58;;;;;;;9.65;6.90;;;14.60;75.60;;;;;;5085069;28;20052;-68
2022/05/24 07:17:23;;;;;;;7.03;5.93;;;14.70;75.50;;;;;;5086970;28;20036;-68
2022/05/24 07:19:50;;;;;;;8.98;6.90;;;14.90;75.20;;;;;;5100862;28;20490;-69
2022/05/24 07:22:16;;;;;;;8.40;6.40;;;15.00;74.90;;;;;;5095764;28;20111;-67
2022/05/24 07:24:42;;;;;;;8.45;6.55;;;15.20;74.80;;;;;;5094753;28;20443;-67
2022/05/24 07:27:13;;;;;;;9.05;6.82;;;15.30;74.50;;;;;;5091886;28;20027;-68
2022/05/24 07:29:40;;;;;;;9.70;8.30;;;15.40;74.40;;;;;;5092719;28;20028;-66
2022/05/24 07:32:06;;;;;;;13.73;9.07;;;15.50;74.60;;;;;;5086421;28;20035;-67
2022/05/24 07:34:33;;;;;;;9.05;7.22;;;15.50;73.30;;;;;;5091260;28;20028;-67
2022/05/24 07:37:00;;;;;;;9.60;8.07;;;15.50;73.30;;;;;;5097368;28;20489;-68
2022/05/24 07:39:27;;;;;;;7.35;6.70;;;15.60;73.00;;;;;;5093146;28;20084;-68
2022/05/24 07:47:20;;;;;;;7.57;6.20;;;15.90;72.50;;;;;;5090658;28;20048;-67
2022/05/24 07:49:45;;;;;;;6.10;5.45;;;16.10;71.90;;;;;;5091127;28;20024;-67
2022/05/24 07:52:11;;;;;;;6.60;5.32;;;16.10;71.50;;;;;;5092150;28;20108;-67
2022/05/24 07:54:37;;;;;;;5.35;4.57;;;16.10;71.30;;;;;;5101321;28;20022;-67
2022/05/24 07:57:03;;;;;;;8.55;5.85;;;16.10;71.30;;;;;;5092393;28;20028;-67
2022/05/24 07:59:29;;;;;;;8.38;5.45;;;16.10;70.80;;;;;;5094323;28;20012;-67
2022/05/24 08:01:55;;;;;;;4.43;3.90;;;16.10;70.40;;;;;;5074342;28;20035;-67
2022/05/24 08:04:21;;;;;;;5.50;4.63;;;16.20;70.50;;;;;;5095480;28;20530;-67
2022/05/24 08:06:47;;;;;;;6.93;4.85;;;16.40;69.90;;;;;;5094032;28;20085;-68
2022/05/24 08:09:12;;;;;;;5.57;4.43;;;16.50;68.90;;;;;;5090013;28;20492;-68
2022/05/24 08:11:38;;;;;;;5.80;4.57;;;16.70;68.00;;;;;;5084908;28;20031;-68
2022/05/24 08:14:06;;;;;;;6.03;4.00;;;16.80;67.10;;;;;;5071268;28;20115;-68
2022/05/24 08:16:32;;;;;;;4.93;4.05;;;16.80;66.80;;;;;;5088909;28;20016;-68
2022/05/24 08:18:58;;;;;;;6.50;4.35;;;16.90;66.10;;;;;;5073331;28;20024;-68
2022/05/24 08:21:27;;;;;;;6.97;3.42;;;17.10;65.50;;;;;;5080364;28;20478;-68
2022/05/24 08:23:53;;;;;;;5.45;3.85;;;17.20;65.30;;;;;;5085250;28;20382;-68
2022/05/24 08:26:18;;;;;;;3.67;3.30;;;17.20;64.00;;;;;;5085803;28;20036;-68
2022/05/24 08:28:47;;;;;;;4.03;3.30;;;17.30;64.10;;;;;;5081689;28;20024;-68
2022/05/24 08:31:14;;;;;;;6.47;4.65;;;17.40;64.10;;;;;;5082531;28;20032;-66
2022/05/24 08:33:41;;;;;;;3.90;3.30;;;17.60;63.50;;;;;;5090798;28;20050;-67
2022/05/24 08:36:07;;;;;;;5.53;3.67;;;17.70;63.60;;;;;;5087724;28;20035;-68
2022/05/24 08:38:34;;;;;;;3.95;3.55;;;17.60;62.80;;;;;;5087541;28;20024;-67
2022/05/24 08:41:02;;;;;;;4.22;2.75;;;17.70;62.20;;;;;;5103283;28;20619;-67
2022/05/24 08:49:56;;;;;;;8.85;3.10;;;17.90;60.10;;;;;;5086022;28;20076;-67
2022/05/24 08:52:23;;;;;;;2.70;1.85;;;17.70;60.10;;;;;;5083879;28;20034;-67
2022/05/24 08:54:50;;;;;;;4.15;2.38;;;17.50;61.10;;;;;;5092855;28;20692;-67
2022/05/24 08:57:37;;;;;;;3.90;2.30;;;17.20;61.30;;;;;;5080845;28;20028;-67
2022/05/24 09:00:11;;;;;;;3.67;1.85;;;17.00;62.90;;;;;;5074590;28;20181;-66
2022/05/24 09:02:41;;;;;;;2.33;1.90;;;16.90;64.20;;;;;;5065688;28;20843;-67
2022/05/24 09:05:20;;;;;;;4.15;2.55;;;16.80;65.30;;;;;;5091870;28;20035;-67
2022/05/24 09:08:20;;;;;;;2.95;1.95;;;16.70;66.00;;;;;;5088219;28;20028;-67
2022/05/24 09:10:53;;;;;;;3.45;2.70;;;16.60;66.50;;;;;;5082774;28;20048;-67
2022/05/24 09:13:31;;;;;;;4.18;2.30;;;16.40;67.10;;;;;;5085550;28;20028;-67
2022/05/24 09:16:09;;;;;;;5.13;2.00;;;16.30;67.90;;;;;;5080581;28;20111;-67
2022/05/24 09:18:54;;;;;;;3.78;2.67;;;16.40;68.70;;;;;;5081634;28;20016;-67
2022/05/24 09:21:23;;;;;;;4.30;2.70;;;16.40;68.80;;;;;;5086140;28;20122;-66
2022/05/24 09:23:56;;;;;;;4.75;2.40;;;16.50;68.90;;;;;;5088387;28;20381;-67
2022/05/24 09:26:24;;;;;;;2.53;2.08;;;16.70;68.70;;;;;;5085506;28;20027;-66
2022/05/24 09:28:58;;;;;;;2.25;1.75;;;16.70;68.40;;;;;;5087976;28;20020;-67
2022/05/24 09:31:38;;;;;;;2.00;1.80;;;16.80;68.20;;;;;;5080676;28;20036;-66
2022/05/24 09:34:19;;;;;;;4.03;2.20;;;16.90;67.60;;;;;;5079769;28;20020;-67
2022/05/24 09:37:01;;;;;;;3.55;1.90;;;16.90;66.80;;;;;;5080454;28;20033;-67
2022/05/24 09:39:30;;;;;;;2.58;2.13;;;17.00;66.80;;;;;;5091802;28;20024;-68
2022/05/24 09:42:00;;;;;;;4.22;2.75;;;17.20;66.40;;;;;;5087545;28;20030;-68
2022/05/24 09:44:28;;;;;;;4.22;3.05;;;17.10;65.80;;;;;;5102968;28;20048;-67
2022/05/24 09:46:54;;;;;;;3.58;2.70;;;17.10;65.60;;;;;;5084050;28;20062;-68
2022/05/24 09:49:25;;;;;;;4.28;2.35;;;17.10;65.80;;;;;;5085966;28;20509;-68
2022/05/24 09:51:55;;;;;;;3.88;2.50;;;17.00;65.60;;;;;;5087269;28;20024;-67
2022/05/24 09:54:25;;;;;;;3.88;2.00;;;17.00;65.80;;;;;;5090405;28;20035;-68
2022/05/24 09:57:11;;;;;;;3.40;2.20;;;17.00;65.30;;;;;;5083506;28;20108;-67
2022/05/24 09:59:41;;;;;;;4.13;2.45;;;17.00;65.30;;;;;;5084613;28;20021;-67
2022/05/24 10:02:26;;;;;;;4.63;2.50;;;17.10;65.20;;;;;;5078099;28;20039;-67
2022/05/24 10:04:52;;;;;;;2.10;1.80;;;17.10;65.00;;;;;;5087486;28;20073;-67
2022/05/24 10:07:30;;;;;;;2.70;1.95;;;17.20;65.10;;;;;;5083027;28;20028;-68
2022/05/24 10:10:02;;;;;;;3.15;2.13;;;17.20;65.00;;;;;;5083309;28;20036;-68
2022/05/24 10:12:33;;;;;;;3.55;1.70;;;17.30;64.70;;;;;;5082567;28;20039;-68
2022/05/24 10:15:02;;;;;;;4.20;1.70;;;17.30;64.00;;;;;;5084687;28;20027;-68
2022/05/24 10:17:44;;;;;;;2.78;1.63;;;17.20;63.60;;;;;;5064236;28;20043;-68
2022/05/24 10:20:29;;;;;;;3.60;2.10;;;17.20;63.70;;;;;;5084820;28;20115;-67
2022/05/24 10:22:54;;;;;;;3.42;1.50;;;17.20;63.20;;;;;;5065606;28;20038;-67
2022/05/24 10:25:35;;;;;;;1.95;1.10;;;17.00;64.20;;;;;;5083146;28;20056;-67
2022/05/24 10:28:18;;;;;;;1.13;1.08;;;17.00;64.60;;;;;;5078835;28;20046;-67
2022/05/24 10:31:20;;;;;;;3.80;1.40;;;16.80;65.50;;;;;;5087092;28;20020;-67
2022/05/24 10:39:58;;;;;;;1.80;1.50;;;16.50;67.60;;;;;;5085222;28;20394;-67
2022/05/24 10:42:50;;;;;;;1.60;1.40;;;16.60;68.00;;;;;;5084544;28;20032;-67
2022/05/24 10:45:49;;;;;;;2.47;1.90;;;16.80;67.90;;;;;;5052214;28;20068;-68
2022/05/24 10:48:20;;;;;;;2.10;1.58;;;17.00;67.10;;;;;;5086708;28;20165;-67
2022/05/24 10:50:55;;;;;;;2.17;1.70;;;17.10;66.00;;;;;;5089601;28;20115;-67
2022/05/24 10:53:29;;;;;;;3.00;1.50;;;17.20;65.50;;;;;;5082492;28;20032;-67
2022/05/24 10:56:23;;;;;;;2.38;1.48;;;17.10;65.60;;;;;;5077578;28;20032;-68
2022/05/24 10:58:50;;;;;;;2.08;1.30;;;17.00;66.10;;;;;;5074917;28;20039;-68
2022/05/24 11:01:27;;;;;;;2.08;1.30;;;17.10;66.50;;;;;;5074982;28;20556;-68
2022/05/24 11:03:59;;;;;;;2.45;1.50;;;17.30;66.30;;;;;;5082927;28;20032;-67
2022/05/24 11:06:31;;;;;;;2.13;1.27;;;17.40;65.60;;;;;;5085078;28;20055;-67
2022/05/24 11:09:18;;;;;;;;;;;17.20;65.60;;;;;;5083495;28;20032;-67
2022/05/24 11:11:46;;;;;;;2.75;1.17;;;17.20;66.00;;;;;;5080102;28;19912;-68
2022/05/24 11:14:23;;;;;;;1.77;1.02;;;17.30;66.00;;;;;;5083783;28;20085;-67
2022/05/24 11:16:51;;;;;;;1.13;1.00;;;17.20;65.90;;;;;;5083495;28;20082;-67
2022/05/24 11:19:28;;;;;;;1.00;0.80;;;17.20;66.10;;;;;;5085878;28;20028;-67
2022/05/24 11:21:58;;;;;;;0.70;0.70;;;17.10;65.80;;;;;;5087806;28;20020;-67
2022/05/24 11:24:49;;;;;;;3.80;0.90;;;16.90;65.70;;;;;;5065256;28;20028;-67
2022/05/24 11:27:17;;;;;;;0.85;0.75;;;16.80;65.70;;;;;;5087627;28;20050;-67
2022/05/24 11:29:53;;;;;;;1.15;0.88;;;16.70;65.90;;;;;;5085893;28;20051;-68
2022/05/24 11:32:33;;;;;;;2.55;0.90;;;16.60;65.90;;;;;;5085175;28;20037;-67
2022/05/24 11:35:07;;;;;;;1.00;0.80;;;16.50;65.60;;;;;;5083254;28;20377;-67
2022/05/24 11:37:39;;;;;;;2.80;0.73;;;16.50;65.60;;;;;;5079464;28;20029;-66
2022/05/24 11:40:30;;;;;;;1.23;0.70;;;16.50;65.60;;;;;;5075903;28;20020;-67
2022/05/24 11:43:10;;;;;;;1.15;0.70;;;16.60;65.40;;;;;;5091212;28;20437;-67
2022/05/24 11:45:55;;;;;;;0.93;0.68;;;16.60;65.30;;;;;;5077722;28;20059;-69
2022/05/24 11:48:21;;;;;;;1.52;0.77;;;16.90;65.10;;;;;;5090567;28;20085;-68
2022/05/24 11:50:51;;;;;;;2.28;0.73;;;17.20;64.50;;;;;;5082856;28;20559;-67
2022/05/24 11:53:32;;;;;;;1.00;0.70;;;17.40;63.60;;;;;;5085634;28;20050;-67
2022/05/24 11:56:00;;;;;;;0.77;0.68;;;17.50;63.20;;;;;;5083829;28;20042;-68
2022/05/24 11:58:31;;;;;;;1.08;0.80;;;17.60;63.00;;;;;;5093115;28;20020;-67
2022/05/24 12:01:02;;;;;;;1.92;0.93;;;17.60;62.70;;;;;;5082898;28;20063;-66
2022/05/24 12:09:25;;;;;;;0.95;0.80;;;17.40;63.40;;;;;;5075815;28;20042;-68
2022/05/24 12:12:15;;;;;;;1.63;0.90;;;17.70;63.40;;;;;;5103782;28;20024;-67
2022/05/24 12:14:41;;;;;;;0.90;0.60;;;18.00;63.00;;;;;;5081931;28;20028;-67
2022/05/24 12:17:15;;;;;;;2.78;0.80;;;18.50;62.60;;;;;;5089055;28;20042;-68
2022/05/24 12:19:44;;;;;;;1.58;0.95;;;18.90;61.50;;;;;;5083517;28;20439;-69
2022/05/24 12:22:13;;;;;;;1.30;0.90;;;19.10;59.80;;;;;;5088529;28;20025;-68
2022/05/24 12:24:38;;;;;;;1.85;0.70;;;19.10;59.50;;;;;;5067887;28;20032;-68
2022/05/24 12:27:14;;;;;;;1.90;0.90;;;19.00;59.40;;;;;;5083440;28;20043;-68
2022/05/24 12:29:46;;;;;;;1.17;0.88;;;18.90;59.70;;;;;;5084965;28;20060;-68
2022/05/24 12:32:14;;;;;;;;;;;18.80;59.80;;;;;;5087114;28;20063;-67
2022/05/24 12:34:40;;;;;;;0.93;0.80;;;18.70;59.90;;;;;;5085114;28;19952;-68
2022/05/24 12:37:30;;;;;;;0.75;0.65;;;18.60;60.20;;;;;;5086503;28;20067;-68
2022/05/24 12:40:21;;;;;;;1.30;0.80;;;18.60;60.30;;;;;;5077469;28;20032;-67
2022/05/24 12:43:00;;;;;;;0.98;0.63;;;18.60;60.50;;;;;;5076940;28;20036;-68
2022/05/24 12:45:31;;;;;;;1.48;0.77;;;18.40;60.20;;;;;;5086287;28;20981;-68
2022/05/24 12:47:58;;;;;;;1.20;0.63;;;18.30;61.40;;;;;;5086128;28;20016;-68
2022/05/24 12:50:44;;;;;;;1.10;0.80;;;18.40;61.80;;;;;;5085017;28;20034;-68
2022/05/24 12:53:13;;;;;;;1.10;0.80;;;18.60;62.10;;;;;;5090082;28;20030;-68
2022/05/24 12:55:56;;;;;;;0.90;0.70;;;18.90;61.30;;;;;;5087057;28;20393;-69
2022/05/24 12:58:35;;;;;;;0.90;0.75;;;19.20;60.90;;;;;;5084827;28;20024;-69
2022/05/24 13:01:27;;;;;;;0.85;0.68;;;19.50;59.60;;;;;;5084456;28;20024;-68
2022/05/24 13:04:09;;;;;;;0.95;0.70;;;19.70;57.70;;;;;;5079098;28;20063;-68
2022/05/24 13:06:36;;;;;;;;;;;19.90;56.70;;;;;;5088538;28;20037;-67
2022/05/24 13:09:16;;;;;;;1.98;0.82;;;20.00;54.60;;;;;;5080895;28;19961;-67
2022/05/24 13:11:44;;;;;;;1.25;0.60;;;20.10;52.60;;;;;;5088761;28;20031;-68
2022/05/24 13:14:18;;;;;;;0.95;0.60;;;20.20;51.80;;;;;;5087760;28;20017;-67
2022/05/24 13:16:45;;;;;;;0.88;0.63;;;20.30;51.00;;;;;;5086276;28;20101;-68
2022/05/24 13:19:11;;;;;;;1.40;0.57;;;20.40;51.50;;;;;;5082322;28;20478;-68
2022/05/24 13:21:37;;;;;;;1.92;0.80;;;20.70;51.50;;;;;;5070436;28;20038;-67
2022/05/24 13:24:20;;;;;;;2.90;0.80;;;21.00;51.10;;;;;;5079249;28;20034;-67
2022/05/24 13:27:05;;;;;;;2.58;0.73;;;21.30;50.70;;;;;;5079079;28;20073;-67
2022/05/24 13:33:33;;;;;;;1.33;0.80;;;21.60;50.30;;;;;;5056341;28;20546;-68
2022/05/24 13:35:01;;;;;;;1.40;0.75;;;21.50;49.80;;;;;;5080131;28;20089;-69
2022/05/24 13:37:50;;;;;;;1.67;0.70;;;21.20;50.10;;;;;;5082188;28;20251;-68
2022/05/24 13:40:16;;;;;;;1.20;0.90;;;20.80;50.20;;;;;;5094544;28;20004;-68
2022/05/24 13:42:57;;;;;;;1.35;0.70;;;20.60;50.90;;;;;;5092985;28;20945;-68